sensor_id;sensor_type;location;lat;lon;timestamp;pressure;altitude;pressure_sealevel;temperature;humidity
58698;BME280;44475;53.206;-6.106;2023-03-31T00:01:35;98386.81;;;24.15;44.13
58698;BME280;44475;53.206;-6.106;2023-03-31T00:04:01;98388.50;;;24.16;44.01
58698;BME280;44475;53.206;-6.106;2023-03-31T00:06:32;98389.94;;;24.12;44.25
58698;BME280;44475;53.206;-6.106;2023-03-31T00:09:04;98380.69;;;24.13;44.11
58698;BME280;44475;53.206;-6.106;2023-03-31T00:11:31;98371.84;;;24.11;44.10
58698;BME280;44475;53.206;-6.106;2023-03-31T00:13:57;98378.56;;;24.08;44.19
58698;BME280;44475;53.206;-6.106;2023-03-31T00:16:24;98371.41;;;24.07;44.14
58698;BME280;44475;53.206;-6.106;2023-03-31T00:18:50;98368.22;;;24.04;44.17
58698;BME280;44475;53.206;-6.106;2023-03-31T00:21:20;98359.81;;;24.05;44.38
58698;BME280;44475;53.206;-6.106;2023-03-31T00:24:06;98356.25;;;24.05;44.26
58698;BME280;44475;53.206;-6.106;2023-03-31T00:26:34;98352.66;;;24.04;44.21
58698;BME280;44475;53.206;-6.106;2023-03-31T00:29:04;98348.44;;;24.02;44.54
58698;BME280;44475;53.206;-6.106;2023-03-31T00:31:32;98346.53;;;24.02;44.29
58698;BME280;44475;53.206;-6.106;2023-03-31T00:33:58;98344.47;;;24.04;44.35
58698;BME280;44475;53.206;-6.106;2023-03-31T00:36:25;98339.63;;;24.06;44.14
58698;BME280;44475;53.206;-6.106;2023-03-31T00:38:56;98345.31;;;24.05;44.25
58698;BME280;44475;53.206;-6.106;2023-03-31T00:41:25;98335.41;;;24.04;44.20
58698;BME280;44475;53.206;-6.106;2023-03-31T00:46:52;98332.88;;;24.02;44.26
58698;BME280;44475;53.206;-6.106;2023-03-31T00:49:28;98332.44;;;23.98;44.18
58698;BME280;44475;53.206;-6.106;2023-03-31T00:52:03;98329.91;;;23.97;44.39
58698;BME280;44475;53.206;-6.106;2023-03-31T00:54:31;98333.06;;;24.01;44.46
58698;BME280;44475;53.206;-6.106;2023-03-31T00:56:59;98325.91;;;23.99;44.50
58698;BME280;44475;53.206;-6.106;2023-03-31T00:59:29;98323.63;;;24.03;44.24
58698;BME280;44475;53.206;-6.106;2023-03-31T01:01:57;98320.03;;;24.03;44.22
58698;BME280;44475;53.206;-6.106;2023-03-31T01:04:40;98314.97;;;23.99;44.42
58698;BME280;44475;53.206;-6.106;2023-03-31T01:07:17;98318.97;;;23.97;44.45
58698;BME280;44475;53.206;-6.106;2023-03-31T01:09:48;98313.31;;;23.98;44.26
58698;BME280;44475;53.206;-6.106;2023-03-31T01:12:17;98319.63;;;23.99;44.42
58698;BME280;44475;53.206;-6.106;2023-03-31T01:14:44;98314.75;;;24.01;44.17
58698;BME280;44475;53.206;-6.106;2023-03-31T01:17:11;98310.56;;;23.98;44.47
58698;BME280;44475;53.206;-6.106;2023-03-31T01:29:26;98306.75;;;23.93;44.33
58698;BME280;44475;53.206;-6.106;2023-03-31T01:38:27;98300.63;;;23.91;44.35
58698;BME280;44475;53.206;-6.106;2023-03-31T01:46:32;98297.69;;;23.92;44.25
58698;BME280;44475;53.206;-6.106;2023-03-31T01:54:57;98297.88;;;23.91;44.43
58698;BME280;44475;53.206;-6.106;2023-03-31T01:57:36;98301.91;;;23.95;44.49
58698;BME280;44475;53.206;-6.106;2023-03-31T02:00:08;98295.16;;;23.91;44.27
58698;BME280;44475;53.206;-6.106;2023-03-31T02:02:49;98295.59;;;23.87;44.65
58698;BME280;44475;53.206;-6.106;2023-03-31T02:05:25;98287.78;;;23.91;44.21
58698;BME280;44475;53.206;-6.106;2023-03-31T02:07:58;98292.41;;;23.91;44.42
58698;BME280;44475;53.206;-6.106;2023-03-31T02:10:30;98294.09;;;23.92;44.51
58698;BME280;44475;53.206;-6.106;2023-03-31T02:12:59;98294.09;;;23.92;44.28
58698;BME280;44475;53.206;-6.106;2023-03-31T02:15:33;98288.44;;;23.93;44.31
58698;BME280;44475;53.206;-6.106;2023-03-31T02:18:03;98292.03;;;23.94;44.41
58698;BME280;44475;53.206;-6.106;2023-03-31T02:20:38;98298.94;;;23.89;44.29
58698;BME280;44475;53.206;-6.106;2023-03-31T02:23:09;98292.03;;;23.94;44.43
58698;BME280;44475;53.206;-6.106;2023-03-31T02:25:49;98289.28;;;23.94;44.33
58698;BME280;44475;53.206;-6.106;2023-03-31T02:28:22;98283.16;;;23.92;44.32
58698;BME280;44475;53.206;-6.106;2023-03-31T02:33:44;98284.22;;;23.91;44.49
58698;BME280;44475;53.206;-6.106;2023-03-31T02:36:10;98284.84;;;23.86;44.58
58698;BME280;44475;53.206;-6.106;2023-03-31T02:38:42;98280.03;;;23.88;44.57
58698;BME280;44475;53.206;-6.106;2023-03-31T02:41:10;98280.63;;;23.90;44.39
58698;BME280;44475;53.206;-6.106;2023-03-31T02:43:36;98281.28;;;23.92;44.52
58698;BME280;44475;53.206;-6.106;2023-03-31T02:46:03;98288.22;;;23.88;44.51
58698;BME280;44475;53.206;-6.106;2023-03-31T02:48:39;98282.75;;;23.88;44.57
58698;BME280;44475;53.206;-6.106;2023-03-31T03:05:06;98283.59;;;23.88;44.52
58698;BME280;44475;53.206;-6.106;2023-03-31T03:07:45;98286.34;;;23.88;44.35
58698;BME280;44475;53.206;-6.106;2023-03-31T03:10:28;98284.84;;;23.86;44.58
58698;BME280;44475;53.206;-6.106;2023-03-31T03:15:36;98288.63;;;23.85;44.69
58698;BME280;44475;53.206;-6.106;2023-03-31T03:18:08;98287.56;;;23.86;44.42
58698;BME280;44475;53.206;-6.106;2023-03-31T03:20:34;98284.84;;;23.86;44.48
58698;BME280;44475;53.206;-6.106;2023-03-31T03:23:01;98289.66;;;23.84;44.58
58698;BME280;44475;53.206;-6.106;2023-03-31T03:25:27;98289.47;;;23.85;44.52
58698;BME280;44475;53.206;-6.106;2023-03-31T03:27:55;98296.44;;;23.88;44.63
58698;BME280;44475;53.206;-6.106;2023-03-31T03:30:21;98294.94;;;23.85;44.57
58698;BME280;44475;53.206;-6.106;2023-03-31T03:32:47;98294.94;;;23.85;44.79
58698;BME280;44475;53.206;-6.106;2023-03-31T03:35:15;98294.53;;;23.88;44.41
58698;BME280;44475;53.206;-6.106;2023-03-31T03:37:41;98298.31;;;23.87;44.75
58698;BME280;44475;53.206;-6.106;2023-03-31T03:40:08;98292.84;;;23.87;44.59
58698;BME280;44475;53.206;-6.106;2023-03-31T03:42:35;98299.78;;;23.90;44.68
58698;BME280;44475;53.206;-6.106;2023-03-31T03:45:03;98304.19;;;23.91;44.60
58698;BME280;44475;53.206;-6.106;2023-03-31T03:47:29;98303.34;;;23.91;44.63
58698;BME280;44475;53.206;-6.106;2023-03-31T03:49:56;98302.31;;;23.92;44.48
58698;BME280;44475;53.206;-6.106;2023-03-31T03:52:22;98310.69;;;23.83;44.61
58698;BME280;44475;53.206;-6.106;2023-03-31T03:54:48;98311.34;;;23.85;44.54
58698;BME280;44475;53.206;-6.106;2023-03-31T03:57:15;98313.44;;;23.83;44.47
58698;BME280;44475;53.206;-6.106;2023-03-31T03:59:41;98312.59;;;23.89;44.34
58698;BME280;44475;53.206;-6.106;2023-03-31T04:02:07;98311.13;;;23.87;44.51
58698;BME280;44475;53.206;-6.106;2023-03-31T04:04:34;98315.56;;;23.88;44.50
58698;BME280;44475;53.206;-6.106;2023-03-31T04:07:00;98311.13;;;23.87;44.63
58698;BME280;44475;53.206;-6.106;2023-03-31T04:09:26;98311.75;;;23.89;44.68
58698;BME280;44475;53.206;-6.106;2023-03-31T04:11:53;98318.06;;;23.89;44.37
58698;BME280;44475;53.206;-6.106;2023-03-31T04:14:19;98319.16;;;23.88;44.48
58698;BME280;44475;53.206;-6.106;2023-03-31T04:16:48;98314.28;;;23.84;44.71
58698;BME280;44475;53.206;-6.106;2023-03-31T04:19:15;98323.53;;;23.89;44.55
58698;BME280;44475;53.206;-6.106;2023-03-31T04:21:46;98324.19;;;23.92;44.52
58698;BME280;44475;53.206;-6.106;2023-03-31T04:24:15;98314.50;;;23.89;44.40
58698;BME280;44475;53.206;-6.106;2023-03-31T04:26:46;98321.44;;;23.85;44.46
58698;BME280;44475;53.206;-6.106;2023-03-31T04:29:16;98321.44;;;23.85;44.77
58698;BME280;44475;53.206;-6.106;2023-03-31T04:31:43;98326.28;;;23.89;44.83
58698;BME280;44475;53.206;-6.106;2023-03-31T04:34:13;98321.66;;;23.90;44.66
58698;BME280;44475;53.206;-6.106;2023-03-31T04:36:42;98323.78;;;23.88;44.56
58698;BME280;44475;53.206;-6.106;2023-03-31T04:39:21;98329.00;;;23.89;44.70
58698;BME280;44475;53.206;-6.106;2023-03-31T04:41:58;98333.88;;;23.87;44.54
58698;BME280;44475;53.206;-6.106;2023-03-31T04:44:25;98334.84;;;23.79;45.03
58698;BME280;44475;53.206;-6.106;2023-03-31T04:46:52;98344.81;;;23.87;44.78
58698;BME280;44475;53.206;-6.106;2023-03-31T04:49:19;98337.00;;;23.84;44.83
58698;BME280;44475;53.206;-6.106;2023-03-31T04:51:45;98336.75;;;23.79;44.68
58698;BME280;44475;53.206;-6.106;2023-03-31T04:54:12;98346.22;;;23.76;45.11
58698;BME280;44475;53.206;-6.106;2023-03-31T04:56:38;98355.09;;;23.85;44.94
58698;BME280;44475;53.206;-6.106;2023-03-31T04:59:05;98362.25;;;23.86;44.62
58698;BME280;44475;53.206;-6.106;2023-03-31T05:01:33;98357.81;;;23.85;44.95
58698;BME280;44475;53.206;-6.106;2023-03-31T05:04:02;98361.22;;;23.87;44.79
58698;BME280;44475;53.206;-6.106;2023-03-31T05:06:28;98360.94;;;23.82;44.75
58698;BME280;44475;53.206;-6.106;2023-03-31T05:08:55;98367.72;;;23.86;44.83
58698;BME280;44475;53.206;-6.106;2023-03-31T05:11:21;98366.22;;;23.84;44.75
58698;BME280;44475;53.206;-6.106;2023-03-31T05:13:47;98373.97;;;23.80;44.71
58698;BME280;44475;53.206;-6.106;2023-03-31T05:16:14;98370.66;;;23.85;44.73
58698;BME280;44475;53.206;-6.106;2023-03-31T05:18:41;98367.06;;;23.84;44.65
58698;BME280;44475;53.206;-6.106;2023-03-31T05:21:09;98379.88;;;23.77;44.91
58698;BME280;44475;53.206;-6.106;2023-03-31T05:23:36;98382.81;;;23.82;44.95
58698;BME280;44475;53.206;-6.106;2023-03-31T05:26:02;98385.09;;;23.78;44.98
58698;BME280;44475;53.206;-6.106;2023-03-31T05:28:28;98392.72;;;23.83;44.86
58698;BME280;44475;53.206;-6.106;2023-03-31T05:30:54;98381.97;;;23.82;45.09
58698;BME280;44475;53.206;-6.106;2023-03-31T05:33:23;98386.88;;;23.86;44.81
58698;BME280;44475;53.206;-6.106;2023-03-31T05:35:49;98387.06;;;23.85;44.74
58698;BME280;44475;53.206;-6.106;2023-03-31T05:38:16;98392.53;;;23.85;44.66
58698;BME280;44475;53.206;-6.106;2023-03-31T05:40:42;98400.94;;;23.83;44.92
58698;BME280;44475;53.206;-6.106;2023-03-31T05:43:08;98411.66;;;23.85;44.82
58698;BME280;44475;53.206;-6.106;2023-03-31T05:45:34;98415.63;;;23.82;44.81
58698;BME280;44475;53.206;-6.106;2023-03-31T05:48:01;98427.19;;;23.77;45.18
58698;BME280;44475;53.206;-6.106;2023-03-31T05:50:27;98420.66;;;23.78;44.73
58698;BME280;44475;53.206;-6.106;2023-03-31T05:52:53;98436.88;;;23.80;45.09
58698;BME280;44475;53.206;-6.106;2023-03-31T05:55:20;98441.47;;;23.79;44.83
58698;BME280;44475;53.206;-6.106;2023-03-31T05:57:46;98441.47;;;23.79;45.09
58698;BME280;44475;53.206;-6.106;2023-03-31T06:00:13;98437.50;;;23.82;44.96
58698;BME280;44475;53.206;-6.106;2023-03-31T06:02:39;98439.59;;;23.80;44.92
58698;BME280;44475;53.206;-6.106;2023-03-31T06:05:06;98445.53;;;23.84;44.79
58698;BME280;44475;53.206;-6.106;2023-03-31T06:07:33;98443.84;;;23.83;44.69
58698;BME280;44475;53.206;-6.106;2023-03-31T06:09:59;98452.22;;;23.81;44.77
58698;BME280;44475;53.206;-6.106;2023-03-31T06:12:25;98464.84;;;23.82;44.71
58698;BME280;44475;53.206;-6.106;2023-03-31T06:14:51;98466.09;;;23.79;45.04
58698;BME280;44475;53.206;-6.106;2023-03-31T06:17:18;98476.84;;;23.81;45.08
58698;BME280;44475;53.206;-6.106;2023-03-31T06:19:44;98478.47;;;23.75;45.05
58698;BME280;44475;53.206;-6.106;2023-03-31T06:22:10;98483.09;;;23.75;45.00
58698;BME280;44475;53.206;-6.106;2023-03-31T06:24:37;98491.69;;;23.72;45.14
58698;BME280;44475;53.206;-6.106;2023-03-31T06:27:04;98495.53;;;23.77;44.98
58698;BME280;44475;53.206;-6.106;2023-03-31T06:29:31;98501.22;;;23.76;44.85
58698;BME280;44475;53.206;-6.106;2023-03-31T06:31:57;98505.63;;;23.77;44.73
58698;BME280;44475;53.206;-6.106;2023-03-31T06:34:23;98505.69;;;23.84;44.90
58698;BME280;44475;53.206;-6.106;2023-03-31T06:36:50;98504.84;;;23.83;44.96
58698;BME280;44475;53.206;-6.106;2023-03-31T06:39:16;98515.72;;;23.76;44.91
58698;BME280;44475;53.206;-6.106;2023-03-31T06:41:43;98521.81;;;23.78;45.09
58698;BME280;44475;53.206;-6.106;2023-03-31T06:44:09;98524.78;;;23.77;44.98
58698;BME280;44475;53.206;-6.106;2023-03-31T06:46:36;98528.59;;;23.83;44.74
58698;BME280;44475;53.206;-6.106;2023-03-31T06:49:02;98529.81;;;23.80;44.88
58698;BME280;44475;53.206;-6.106;2023-03-31T06:51:28;98531.94;;;23.78;44.97
58698;BME280;44475;53.206;-6.106;2023-03-31T06:53:54;98533.22;;;23.82;45.02
58698;BME280;44475;53.206;-6.106;2023-03-31T06:56:21;98542.72;;;23.86;44.82
58698;BME280;44475;53.206;-6.106;2023-03-31T06:58:47;98547.75;;;23.83;45.03
58698;BME280;44475;53.206;-6.106;2023-03-31T07:01:13;98553.81;;;23.78;44.86
58698;BME280;44475;53.206;-6.106;2023-03-31T07:03:39;98552.56;;;23.81;44.94
58698;BME280;44475;53.206;-6.106;2023-03-31T07:06:06;98562.44;;;23.82;45.02
58698;BME280;44475;53.206;-6.106;2023-03-31T07:08:32;98556.53;;;23.78;44.89
58698;BME280;44475;53.206;-6.106;2023-03-31T07:11:00;98563.50;;;23.81;45.09
58698;BME280;44475;53.206;-6.106;2023-03-31T07:13:27;98568.72;;;23.75;45.11
58698;BME280;44475;53.206;-6.106;2023-03-31T07:15:53;98574.63;;;23.79;44.95
58698;BME280;44475;53.206;-6.106;2023-03-31T07:18:20;98582.81;;;23.79;44.96
58698;BME280;44475;53.206;-6.106;2023-03-31T07:20:50;98585.16;;;23.82;44.72
58698;BME280;44475;53.206;-6.106;2023-03-31T07:23:16;98587.91;;;23.82;44.89
58698;BME280;44475;53.206;-6.106;2023-03-31T07:25:43;98600.53;;;23.83;45.14
58698;BME280;44475;53.206;-6.106;2023-03-31T07:28:11;98604.69;;;23.79;45.01
58698;BME280;44475;53.206;-6.106;2023-03-31T07:30:38;98605.34;;;23.81;45.02
58698;BME280;44475;53.206;-6.106;2023-03-31T07:33:05;98613.19;;;23.84;44.83
58698;BME280;44475;53.206;-6.106;2023-03-31T07:35:31;98614.41;;;23.82;45.13
58698;BME280;44475;53.206;-6.106;2023-03-31T07:37:58;98623.25;;;23.84;44.83
58698;BME280;44475;53.206;-6.106;2023-03-31T07:40:26;98626.47;;;23.87;44.63
58698;BME280;44475;53.206;-6.106;2023-03-31T07:42:54;98639.47;;;23.85;44.89
58698;BME280;44475;53.206;-6.106;2023-03-31T07:45:22;98638.25;;;23.88;44.68
58698;BME280;44475;53.206;-6.106;2023-03-31T07:47:49;98642.88;;;23.87;44.76
58698;BME280;44475;53.206;-6.106;2023-03-31T07:50:16;98643.72;;;23.88;44.54
58698;BME280;44475;53.206;-6.106;2023-03-31T07:52:43;98647.09;;;23.90;44.48
58698;BME280;44475;53.206;-6.106;2023-03-31T07:55:10;98655.69;;;23.87;44.56
58698;BME280;44475;53.206;-6.106;2023-03-31T07:57:36;98666.16;;;23.83;44.69
58698;BME280;44475;53.206;-6.106;2023-03-31T08:00:04;98664.09;;;23.85;44.95
58698;BME280;44475;53.206;-6.106;2023-03-31T08:02:38;98678.81;;;23.84;44.83
58698;BME280;44475;53.206;-6.106;2023-03-31T08:05:06;98676.91;;;23.85;44.86
58698;BME280;44475;53.206;-6.106;2023-03-31T08:07:34;98682.09;;;23.79;45.15
58698;BME280;44475;53.206;-6.106;2023-03-31T08:10:03;98682.56;;;23.83;44.67
58698;BME280;44475;53.206;-6.106;2023-03-31T08:12:29;98693.44;;;23.76;45.05
58698;BME280;44475;53.206;-6.106;2023-03-31T08:14:56;98700.31;;;23.87;44.72
58698;BME280;44475;53.206;-6.106;2023-03-31T08:17:22;98706.53;;;23.81;45.14
58698;BME280;44475;53.206;-6.106;2023-03-31T08:19:48;98710.47;;;23.78;45.02
58698;BME280;44475;53.206;-6.106;2023-03-31T08:22:16;98712.66;;;23.83;45.18
58698;BME280;44475;53.206;-6.106;2023-03-31T08:24:43;98717.78;;;23.71;45.46
58698;BME280;44475;53.206;-6.106;2023-03-31T08:27:09;98722.50;;;23.77;45.08
58698;BME280;44475;53.206;-6.106;2023-03-31T08:29:35;98729.75;;;23.70;45.34
58698;BME280;44475;53.206;-6.106;2023-03-31T08:32:02;98729.94;;;23.68;45.19
58698;BME280;44475;53.206;-6.106;2023-03-31T08:34:28;98734.00;;;23.42;45.83
58698;BME280;44475;53.206;-6.106;2023-03-31T08:36:54;98746.13;;;23.09;46.72
58698;BME280;44475;53.206;-6.106;2023-03-31T08:39:21;98740.56;;;23.02;47.30
58698;BME280;44475;53.206;-6.106;2023-03-31T08:42:00;98745.84;;;23.19;46.92
58698;BME280;44475;53.206;-6.106;2023-03-31T08:44:55;98751.06;;;23.44;46.02
58698;BME280;44475;53.206;-6.106;2023-03-31T08:47:25;98761.22;;;23.51;45.99
58698;BME280;44475;53.206;-6.106;2023-03-31T08:49:59;98759.56;;;23.65;45.78
58698;BME280;44475;53.206;-6.106;2023-03-31T08:52:36;98758.88;;;23.78;45.66
58698;BME280;44475;53.206;-6.106;2023-03-31T08:55:09;98761.31;;;23.73;45.57
58698;BME280;44475;53.206;-6.106;2023-03-31T08:57:57;98769.97;;;23.61;45.83
58698;BME280;44475;53.206;-6.106;2023-03-31T09:00:35;98768.19;;;23.68;45.41
58698;BME280;44475;53.206;-6.106;2023-03-31T09:03:08;98778.03;;;23.78;45.28
58698;BME280;44475;53.206;-6.106;2023-03-31T09:06:04;98785.56;;;23.76;45.26
58698;BME280;44475;53.206;-6.106;2023-03-31T09:08:41;98791.69;;;23.78;44.92
58698;BME280;44475;53.206;-6.106;2023-03-31T09:11:28;98795.66;;;23.75;44.87
58698;BME280;44475;53.206;-6.106;2023-03-31T09:17:24;98798.19;;;23.46;45.23
58698;BME280;44475;53.206;-6.106;2023-03-31T09:19:59;98800.22;;;23.59;45.12
58698;BME280;44475;53.206;-6.106;2023-03-31T09:22:36;98810.72;;;23.71;44.83
58698;BME280;44475;53.206;-6.106;2023-03-31T09:25:18;98801.94;;;23.61;44.96
58698;BME280;44475;53.206;-6.106;2023-03-31T09:27:46;98824.50;;;23.78;44.40
58698;BME280;44475;53.206;-6.106;2023-03-31T09:30:17;98824.28;;;23.79;44.15
58698;BME280;44475;53.206;-6.106;2023-03-31T09:32:48;98825.31;;;23.78;44.18
58698;BME280;44475;53.206;-6.106;2023-03-31T09:37:43;98832.91;;;23.76;44.05
58698;BME280;44475;53.206;-6.106;2023-03-31T09:40:16;98827.22;;;23.63;43.80
58698;BME280;44475;53.206;-6.106;2023-03-31T09:42:44;98851.63;;;23.79;43.64
58698;BME280;44475;53.206;-6.106;2023-03-31T09:45:18;98851.66;;;23.64;44.06
58698;BME280;44475;53.206;-6.106;2023-03-31T09:47:49;98845.41;;;23.55;44.52
58698;BME280;44475;53.206;-6.106;2023-03-31T09:50:17;98858.53;;;23.75;43.88
58698;BME280;44475;53.206;-6.106;2023-03-31T09:52:53;98861.47;;;23.74;44.03
58698;BME280;44475;53.206;-6.106;2023-03-31T09:55:45;98874.56;;;23.78;44.01
58698;BME280;44475;53.206;-6.106;2023-03-31T09:58:16;98872.75;;;23.71;44.32
58698;BME280;44475;53.206;-6.106;2023-03-31T10:03:22;98881.63;;;23.73;44.24
58698;BME280;44475;53.206;-6.106;2023-03-31T10:05:51;98890.13;;;23.78;44.54
58698;BME280;44475;53.206;-6.106;2023-03-31T10:08:26;98895.66;;;23.69;44.70
58698;BME280;44475;53.206;-6.106;2023-03-31T10:11:14;98897.28;;;23.79;44.43
58698;BME280;44475;53.206;-6.106;2023-03-31T10:13:50;98901.34;;;23.83;44.72
58698;BME280;44475;53.206;-6.106;2023-03-31T10:16:26;98903.31;;;23.74;44.51
58698;BME280;44475;53.206;-6.106;2023-03-31T10:18:53;98906.25;;;23.73;44.94
58698;BME280;44475;53.206;-6.106;2023-03-31T10:21:25;98907.84;;;23.82;44.47
58698;BME280;44475;53.206;-6.106;2023-03-31T10:23:53;98915.78;;;23.77;44.83
58698;BME280;44475;53.206;-6.106;2023-03-31T10:26:23;98916.72;;;23.84;44.83
58698;BME280;44475;53.206;-6.106;2023-03-31T10:28:51;98923.22;;;23.83;44.78
58698;BME280;44475;53.206;-6.106;2023-03-31T10:31:24;98926.31;;;23.80;44.85
58698;BME280;44475;53.206;-6.106;2023-03-31T10:33:51;98928.69;;;23.83;44.95
58698;BME280;44475;53.206;-6.106;2023-03-31T10:36:27;98932.75;;;23.87;44.72
58698;BME280;44475;53.206;-6.106;2023-03-31T10:38:55;98933.03;;;23.93;44.63
58698;BME280;44475;53.206;-6.106;2023-03-31T10:41:27;98941.44;;;23.76;45.39
58698;BME280;44475;53.206;-6.106;2023-03-31T10:43:55;98940.94;;;23.72;45.36
58698;BME280;44475;53.206;-6.106;2023-03-31T10:51:53;98960.38;;;23.77;45.28
58698;BME280;44475;53.206;-6.106;2023-03-31T10:54:20;98964.50;;;23.73;45.33
58698;BME280;44475;53.206;-6.106;2023-03-31T10:56:51;98962.91;;;23.64;45.57
58698;BME280;44475;53.206;-6.106;2023-03-31T11:02:39;98977.69;;;23.69;45.76
58698;BME280;44475;53.206;-6.106;2023-03-31T11:14:01;98996.78;;;23.78;45.28
58698;BME280;44475;53.206;-6.106;2023-03-31T11:16:50;99001.78;;;23.89;45.16
58698;BME280;44475;53.206;-6.106;2023-03-31T11:22:14;99011.53;;;23.68;45.74
58698;BME280;44475;53.206;-6.106;2023-03-31T11:25:09;99015.97;;;23.69;45.53
58698;BME280;44475;53.206;-6.106;2023-03-31T11:30:37;99023.72;;;23.66;45.75
58698;BME280;44475;53.206;-6.106;2023-03-31T11:41:14;99038.84;;;23.77;45.63
58698;BME280;44475;53.206;-6.106;2023-03-31T11:43:54;99042.63;;;23.91;45.35
58698;BME280;44475;53.206;-6.106;2023-03-31T11:49:23;99053.75;;;23.89;45.30
58698;BME280;44475;53.206;-6.106;2023-03-31T11:51:54;99048.75;;;23.78;45.72
58698;BME280;44475;53.206;-6.106;2023-03-31T11:54:29;99064.09;;;23.79;45.52
58698;BME280;44475;53.206;-6.106;2023-03-31T11:57:03;99064.75;;;23.81;45.41
58698;BME280;44475;53.206;-6.106;2023-03-31T11:59:35;99070.66;;;23.93;45.17
58698;BME280;44475;53.206;-6.106;2023-03-31T12:04:41;99056.19;;;23.84;44.77
58698;BME280;44475;53.206;-6.106;2023-03-31T12:07:13;99086.81;;;24.03;44.70
58698;BME280;44475;53.206;-6.106;2023-03-31T12:09:59;99084.75;;;24.05;44.16
58698;BME280;44475;53.206;-6.106;2023-03-31T12:12:54;99089.03;;;23.99;43.87
58698;BME280;44475;53.206;-6.106;2023-03-31T12:15:23;99094.59;;;23.91;43.79
58698;BME280;44475;53.206;-6.106;2023-03-31T12:18:07;99087.63;;;23.88;43.94
58698;BME280;44475;53.206;-6.106;2023-03-31T12:20:48;99094.16;;;23.79;44.14
58698;BME280;44475;53.206;-6.106;2023-03-31T12:23:20;99100.44;;;23.88;43.85
58698;BME280;44475;53.206;-6.106;2023-03-31T12:26:03;99102.44;;;23.94;43.87
58698;BME280;44475;53.206;-6.106;2023-03-31T12:28:35;99113.63;;;23.84;44.32
58698;BME280;44475;53.206;-6.106;2023-03-31T12:31:05;99111.56;;;23.86;44.61
58698;BME280;44475;53.206;-6.106;2023-03-31T12:33:38;99110.81;;;23.93;44.29
58698;BME280;44475;53.206;-6.106;2023-03-31T12:44:33;99128.88;;;24.02;44.58
58698;BME280;44475;53.206;-6.106;2023-03-31T12:53:18;99133.63;;;23.85;45.24
58698;BME280;44475;53.206;-6.106;2023-03-31T12:55:55;99145.53;;;23.92;44.88
58698;BME280;44475;53.206;-6.106;2023-03-31T13:09:00;99161.88;;;24.01;45.11
58698;BME280;44475;53.206;-6.106;2023-03-31T13:14:27;99161.69;;;24.02;44.95
58698;BME280;44475;53.206;-6.106;2023-03-31T13:16:54;99183.66;;;23.94;44.99
58698;BME280;44475;53.206;-6.106;2023-03-31T13:19:37;99171.97;;;24.00;45.03
58698;BME280;44475;53.206;-6.106;2023-03-31T13:22:05;99181.84;;;24.09;44.89
58698;BME280;44475;53.206;-6.106;2023-03-31T13:24:32;99183.75;;;24.01;45.17
58698;BME280;44475;53.206;-6.106;2023-03-31T13:27:26;99189.56;;;24.06;44.97
58698;BME280;44475;53.206;-6.106;2023-03-31T13:29:53;99193.81;;;24.08;44.96
58698;BME280;44475;53.206;-6.106;2023-03-31T13:32:24;99194.47;;;24.11;44.97
58698;BME280;44475;53.206;-6.106;2023-03-31T13:35:13;99190.59;;;24.05;45.06
58698;BME280;44475;53.206;-6.106;2023-03-31T13:51:55;99210.88;;;24.11;45.08
58698;BME280;44475;53.206;-6.106;2023-03-31T14:11:25;99238.84;;;23.97;45.36
58698;BME280;44475;53.206;-6.106;2023-03-31T14:16:49;99254.09;;;23.92;45.50
58698;BME280;44475;53.206;-6.106;2023-03-31T14:29:57;99273.56;;;24.21;44.77
58698;BME280;44475;53.206;-6.106;2023-03-31T14:32:34;99272.41;;;24.15;44.91
58698;BME280;44475;53.206;-6.106;2023-03-31T14:35:23;99277.16;;;23.97;45.24
58698;BME280;44475;53.206;-6.106;2023-03-31T14:37:55;99279.72;;;24.23;44.75
58698;BME280;44475;53.206;-6.106;2023-03-31T14:40:22;99286.22;;;24.22;44.83
58698;BME280;44475;53.206;-6.106;2023-03-31T14:42:49;99284.09;;;24.08;44.77
58698;BME280;44475;53.206;-6.106;2023-03-31T14:45:24;99295.28;;;23.98;45.45
58698;BME280;44475;53.206;-6.106;2023-03-31T14:47:55;99293.75;;;23.96;45.32
58698;BME280;44475;53.206;-6.106;2023-03-31T14:50:26;99303.44;;;24.07;44.97
58698;BME280;44475;53.206;-6.106;2023-03-31T14:52:53;99303.19;;;24.17;45.10
58698;BME280;44475;53.206;-6.106;2023-03-31T14:55:26;99308.28;;;23.96;45.38
58698;BME280;44475;53.206;-6.106;2023-03-31T14:57:57;99308.28;;;23.96;45.73
58698;BME280;44475;53.206;-6.106;2023-03-31T15:00:27;99310.69;;;24.23;44.96
58698;BME280;44475;53.206;-6.106;2023-03-31T15:02:55;99315.41;;;24.06;45.40
58698;BME280;44475;53.206;-6.106;2023-03-31T15:08:18;99321.56;;;23.67;46.74
58698;BME280;44475;53.206;-6.106;2023-03-31T15:10:49;99322.59;;;23.49;47.01
58698;BME280;44475;53.206;-6.106;2023-03-31T15:13:22;99323.31;;;23.43;47.45
58698;BME280;44475;53.206;-6.106;2023-03-31T15:15:51;99323.06;;;23.62;46.82
58698;BME280;44475;53.206;-6.106;2023-03-31T15:18:17;99331.81;;;23.65;46.91
58698;BME280;44475;53.206;-6.106;2023-03-31T15:20:44;99329.22;;;23.72;46.66
58698;BME280;44475;53.206;-6.106;2023-03-31T15:23:22;99336.53;;;23.80;46.46
58698;BME280;44475;53.206;-6.106;2023-03-31T15:25:58;99346.66;;;23.71;46.61
58698;BME280;44475;53.206;-6.106;2023-03-31T15:28:33;99356.16;;;23.92;46.09
58698;BME280;44475;53.206;-6.106;2023-03-31T15:31:02;99355.25;;;24.08;45.68
58698;BME280;44475;53.206;-6.106;2023-03-31T15:33:32;99354.00;;;24.11;45.60
58698;BME280;44475;53.206;-6.106;2023-03-31T15:36:02;99359.63;;;24.18;45.24
58698;BME280;44475;53.206;-6.106;2023-03-31T15:38:29;99364.94;;;24.11;45.55
58698;BME280;44475;53.206;-6.106;2023-03-31T15:40:58;99361.69;;;24.16;45.26
58698;BME280;44475;53.206;-6.106;2023-03-31T15:43:30;99372.84;;;24.06;45.54
58698;BME280;44475;53.206;-6.106;2023-03-31T15:45:58;99370.81;;;24.08;45.36
58698;BME280;44475;53.206;-6.106;2023-03-31T15:48:54;99368.59;;;24.03;45.42
58698;BME280;44475;53.206;-6.106;2023-03-31T15:51:36;99373.63;;;24.23;44.99
58698;BME280;44475;53.206;-6.106;2023-03-31T15:54:12;99380.84;;;24.16;45.23
58698;BME280;44475;53.206;-6.106;2023-03-31T15:56:49;99382.22;;;24.12;45.36
58698;BME280;44475;53.206;-6.106;2023-03-31T15:59:22;99387.00;;;24.18;45.06